createdAt,value
2022-09-03T10:02:13.756Z,100570.44
2022-09-03T10:04:48.749Z,100576.13
2022-09-03T10:07:32.036Z,100568.41
2022-09-03T10:10:19.610Z,100576.16
2022-09-03T10:13:10.019Z,100566.56
2022-09-03T10:15:51.931Z,100562.69
2022-09-03T10:18:28.731Z,100562.66
2022-09-03T10:21:05.005Z,100565.91
2022-09-03T10:23:41.874Z,100551.19
2022-09-03T10:26:16.723Z,100562.22
2022-09-03T10:28:46.202Z,100556.06
2022-09-03T10:31:31.821Z,100554.91
2022-09-03T10:34:24.576Z,100574.09
2022-09-03T10:37:10.683Z,100564.88
2022-09-03T10:39:55.952Z,100546.00
2022-09-03T10:42:37.502Z,100540.84
2022-09-03T10:45:09.839Z,100554.94
2022-09-03T10:48:19.218Z,100545.66
2022-09-03T10:51:16.703Z,100554.78
2022-09-03T10:53:53.504Z,100545.44
2022-09-03T10:56:39.784Z,100546.84
2022-09-03T10:59:28.601Z,100552.94
2022-09-03T11:02:21.278Z,100544.16
2022-09-03T11:05:00.566Z,100542.25
2022-09-03T11:07:35.657Z,100548.34
2022-09-03T11:10:15.562Z,100535.19
2022-09-03T11:13:10.039Z,100534.34
2022-09-03T11:15:43.373Z,100538.78
2022-09-03T11:18:18.740Z,100534.94
2022-09-03T11:20:49.350Z,100531.34
2022-09-03T11:23:17.284Z,100531.34
2022-09-03T11:25:51.650Z,100529.13
2022-09-03T11:28:36.977Z,100530.81
2022-09-03T11:31:13.920Z,100529.69
2022-09-03T11:33:46.156Z,100529.69
2022-09-03T11:36:13.641Z,100521.44
2022-09-03T11:38:40.554Z,100526.69
2022-09-03T11:41:36.381Z,100524.22
2022-09-03T11:44:19.786Z,100514.25
2022-09-03T11:47:25.137Z,100506.53
2022-09-03T11:50:08.847Z,100513.09
2022-09-03T11:52:40.574Z,100512.56
2022-09-03T11:55:08.607Z,100508.69
2022-09-03T11:57:43.474Z,100512.25
2022-09-03T12:00:13.237Z,100504.22
2022-09-03T12:02:52.485Z,100504.78
2022-09-03T12:05:48.304Z,100508.09
2022-09-03T12:08:50.787Z,100511.38
2022-09-03T12:11:32.584Z,100514.13
2022-09-03T12:14:23.699Z,100514.09
2022-09-03T12:17:20.046Z,100505.50
2022-09-03T12:19:56.712Z,100499.69
2022-09-03T12:22:27.543Z,100495.47
2022-09-03T12:24:54.727Z,100501.22
2022-09-03T12:27:24.784Z,100495.69
2022-09-03T12:30:00.288Z,100492.28
2022-09-03T12:32:36.963Z,100497.16
2022-09-03T12:35:13.679Z,100497.88
2022-09-03T12:40:30.652Z,100498.03
2022-09-03T12:46:16.045Z,100491.81
2022-09-03T12:51:52.571Z,100485.59
2022-09-03T12:54:22.302Z,100488.09
2022-09-03T12:56:56.309Z,100482.56
2022-09-03T12:59:24.975Z,100490.59
2022-09-03T13:01:54.923Z,100482.31
2022-09-03T13:04:29.450Z,100488.91
2022-09-03T13:07:21.421Z,100482.19
2022-09-03T13:09:48.621Z,100485.44
2022-09-03T13:12:40.867Z,100485.63
2022-09-03T13:15:10.970Z,100487.28
2022-09-03T13:17:37.572Z,100476.97
2022-09-03T13:20:29.381Z,100463.56
2022-09-03T13:23:20.537Z,100484.53
2022-09-03T13:26:31.730Z,100480.84
2022-09-03T13:29:22.520Z,100478.75
2022-09-03T13:32:25.931Z,100479.13
2022-09-03T13:35:32.506Z,100470.09
2022-09-03T13:38:14.795Z,100476.31
2022-09-03T13:41:19.697Z,100472.38
2022-09-03T13:44:07.871Z,100471.75
2022-09-03T13:46:57.465Z,100470.34
2022-09-03T13:49:52.055Z,100466.97
2022-09-03T13:52:28.527Z,100467.41
2022-09-03T13:55:03.034Z,100456.25
2022-09-03T13:57:48.106Z,100460.56
2022-09-03T14:00:25.190Z,100460.50
2022-09-03T14:03:33.316Z,100462.69
2022-09-03T14:06:14.377Z,100473.53
2022-09-03T14:09:04.740Z,100464.47
2022-09-03T14:11:47.112Z,100459.00
2022-09-03T14:14:53.087Z,100462.97
2022-09-03T14:17:41.618Z,100458.03
2022-09-03T14:20:19.394Z,100451.47
2022-09-03T14:22:55.811Z,100457.09
2022-09-03T14:25:25.158Z,100459.31
2022-09-03T14:27:52.174Z,100455.50
2022-09-03T14:30:27.785Z,100459.13
2022-09-03T14:32:57.186Z,100459.41
2022-09-03T14:35:51.881Z,100455.50
2022-09-03T14:38:36.950Z,100458.59
2022-09-03T14:41:22.662Z,100467.78
2022-09-03T14:43:55.015Z,100467.88
2022-09-03T14:46:45.946Z,100457.16
2022-09-03T14:49:30.947Z,100464.16
2022-09-03T14:52:22.110Z,100462.88
2022-09-03T14:55:27.333Z,100462.44
2022-09-03T14:58:21.881Z,100467.22
2022-09-03T15:00:52.611Z,100470.03
2022-09-03T15:03:39.598Z,100463.16
2022-09-03T15:06:30.678Z,100467.06
2022-09-03T15:09:16.791Z,100471.25
2022-09-03T15:11:55.550Z,100473.16
2022-09-03T15:14:29.784Z,100472.94
2022-09-03T15:17:19.367Z,100478.75
2022-09-03T15:19:55.761Z,100470.22
2022-09-03T15:22:37.846Z,100468.06
2022-09-03T15:25:07.294Z,100473.59
2022-09-03T15:27:37.008Z,100471.66
2022-09-03T15:30:09.903Z,100466.66
2022-09-03T15:32:42.299Z,100467.19
2022-09-03T15:35:13.943Z,100467.13
2022-09-03T15:37:48.938Z,100475.88
2022-09-03T15:40:27.478Z,100481.06
2022-09-03T15:43:05.032Z,100478.50
2022-09-03T15:45:38.477Z,100470.72
2022-09-03T15:48:29.253Z,100467.16
2022-09-03T15:51:10.550Z,100471.00
2022-09-03T15:53:45.994Z,100472.44
2022-09-03T15:56:38.862Z,100465.53
2022-09-03T15:59:14.604Z,100473.63
2022-09-03T16:01:47.988Z,100476.41
2022-09-03T16:04:22.835Z,100475.38
2022-09-03T16:07:27.857Z,100484.22
2022-09-03T16:10:23.754Z,100472.13
2022-09-03T16:13:22.795Z,100478.53
2022-09-03T16:16:05.221Z,100478.59
2022-09-03T16:18:49.687Z,100475.28
2022-09-03T16:21:37.463Z,100483.91
2022-09-03T16:24:16.076Z,100481.41
2022-09-03T16:26:48.800Z,100478.97
2022-09-03T16:29:26.075Z,100476.69
2022-09-03T16:32:27.559Z,100475.28
2022-09-03T16:35:11.597Z,100488.56
2022-09-03T16:38:01.810Z,100486.06
2022-09-03T16:40:40.377Z,100483.09
2022-09-03T16:43:40.731Z,100493.66
2022-09-03T16:46:53.538Z,100494.56
2022-09-03T16:49:38.340Z,100501.06
2022-09-03T16:52:38.665Z,100495.91
2022-09-03T16:55:22.072Z,100500.16
2022-09-03T16:58:10.788Z,100506.59
2022-09-03T17:01:15.515Z,100505.84
2022-09-03T17:03:44.992Z,100512.28
2022-09-03T17:06:30.779Z,100509.59
2022-09-03T17:09:07.037Z,100509.09
2022-09-03T17:11:40.661Z,100511.34
2022-09-03T17:14:27.312Z,100526.31
2022-09-03T17:17:10.712Z,100524.13
2022-09-03T17:19:54.618Z,100524.69
2022-09-03T17:22:39.820Z,100528.28
2022-09-03T17:25:35.723Z,100537.69
2022-09-03T17:28:11.178Z,100528.31
2022-09-03T17:30:49.294Z,100529.97
2022-09-03T17:33:54.673Z,100522.28
2022-09-03T17:36:27.156Z,100523.69
2022-09-03T17:39:17.939Z,100529.81
2022-09-03T17:41:55.158Z,100533.97
2022-09-03T17:44:37.088Z,100537.06
2022-09-03T17:47:41.609Z,100536.25
2022-09-03T17:50:24.873Z,100543.44
2022-09-03T17:52:59.834Z,100544.53
2022-09-03T17:55:39.434Z,100548.41
2022-09-03T17:58:19.613Z,100555.03
2022-09-03T18:00:53.986Z,100546.22
2022-09-03T18:03:39.570Z,100556.72
2022-09-03T18:06:20.721Z,100551.78
2022-09-03T18:09:10.542Z,100561.44
2022-09-03T18:11:40.870Z,100558.38
2022-09-03T18:14:11.691Z,100562.78
2022-09-03T18:16:45.849Z,100561.66
2022-09-03T18:19:52.701Z,100567.72
2022-09-03T18:22:41.125Z,100568.81
2022-09-03T18:25:30.450Z,100578.19
2022-09-03T18:28:19.699Z,100585.31
2022-09-03T18:31:06.556Z,100587.22
2022-09-03T18:33:51.457Z,100588.81
2022-09-03T18:36:36.467Z,100594.84
2022-09-03T18:39:30.052Z,100597.84
2022-09-03T18:42:47.165Z,100605.50
2022-09-03T18:49:07.979Z,100601.00
2022-09-03T18:52:21.773Z,100601.53
2022-09-03T18:55:26.494Z,100605.56
2022-09-03T18:58:34.097Z,100611.56
2022-09-03T19:01:51.527Z,100620.06
2022-09-03T19:04:44.414Z,100619.47
2022-09-03T19:07:42.167Z,100623.25
2022-09-03T19:10:34.583Z,100627.63
2022-09-03T19:13:45.604Z,100623.72
2022-09-03T19:16:38.565Z,100633.34
2022-09-03T19:19:46.038Z,100630.28
2022-09-03T19:22:54.377Z,100629.72
2022-09-03T19:25:40.787Z,100641.00
2022-09-03T19:28:33.286Z,100635.50
2022-09-03T19:31:50.701Z,100633.00
2022-09-03T19:35:00.931Z,100642.88
2022-09-03T19:37:59.999Z,100641.72
2022-09-03T19:41:14.962Z,100646.06
2022-09-03T19:44:15.493Z,100647.72
2022-09-03T19:47:11.551Z,100645.44
2022-09-03T19:50:33.619Z,100644.88
2022-09-03T19:53:22.124Z,100646.47
2022-09-03T19:56:12.884Z,100644.00
2022-09-03T19:59:07.022Z,100646.41
2022-09-03T20:01:54.505Z,100643.38
2022-09-03T20:04:50.841Z,100644.72
2022-09-03T20:07:37.177Z,100650.44
2022-09-03T20:10:23.415Z,100654.00
2022-09-03T20:13:05.121Z,100662.44
2022-09-03T20:15:46.963Z,100668.41
2022-09-03T20:18:51.086Z,100671.84
2022-09-03T20:21:25.814Z,100676.97
2022-09-03T20:24:34.355Z,100685.66
2022-09-03T20:27:03.437Z,100685.25
2022-09-03T20:29:33.043Z,100691.72
2022-09-03T20:32:05.697Z,100706.72
2022-09-03T20:34:48.029Z,100693.44
2022-09-03T20:37:36.095Z,100695.78
2022-09-03T20:40:21.123Z,100702.28
2022-09-03T20:43:13.994Z,100708.75
2022-09-03T20:46:18.026Z,100711.69
2022-09-03T20:49:08.755Z,100705.81
2022-09-03T20:52:05.434Z,100705.94
2022-09-03T20:54:48.007Z,100717.63
2022-09-03T20:57:44.762Z,100715.06
2022-09-03T21:00:18.433Z,100705.06
2022-09-03T21:03:00.245Z,100720.38
2022-09-03T21:05:38.043Z,100723.03
2022-09-03T21:08:34.331Z,100725.66
2022-09-03T21:11:29.125Z,100723.66
2022-09-03T21:14:14.610Z,100726.31
2022-09-03T21:16:53.093Z,100736.94
2022-09-03T21:19:37.910Z,100734.94
2022-09-03T21:22:29.034Z,100739.25
2022-09-03T21:25:03.550Z,100738.06
2022-09-03T21:27:38.344Z,100736.06
2022-09-03T21:30:08.508Z,100742.03
2022-09-03T21:32:56.596Z,100741.69
2022-09-03T21:36:18.937Z,100742.38
2022-09-03T21:38:57.042Z,100741.19
2022-09-03T21:41:32.198Z,100741.94
2022-09-03T21:44:07.930Z,100745.41
2022-09-03T21:46:54.097Z,100746.94
2022-09-03T21:49:47.798Z,100754.84
2022-09-03T21:52:24.432Z,100759.16
2022-09-03T21:54:52.079Z,100760.09
2022-09-03T21:57:52.421Z,100760.56
2022-09-03T22:00:32.402Z,100757.72
2022-09-03T22:03:00.359Z,100754.03
2022-09-03T22:05:57.202Z,100756.44
2022-09-03T22:08:30.618Z,100756.44
2022-09-03T22:11:12.952Z,100756.31
2022-09-03T22:13:54.325Z,100756.78
2022-09-03T22:16:23.989Z,100757.75
2022-09-03T22:18:50.786Z,100760.38
2022-09-03T22:21:17.211Z,100757.50
2022-09-03T22:24:10.315Z,100762.34
2022-09-03T22:26:49.162Z,100763.09
2022-09-03T22:29:31.522Z,100767.13
2022-09-03T22:32:10.388Z,100775.81
2022-09-03T22:35:05.890Z,100772.47
2022-09-03T22:37:47.754Z,100768.31
2022-09-03T22:40:28.573Z,100766.28
2022-09-03T22:43:01.928Z,100772.22
2022-09-03T22:45:45.639Z,100774.34
2022-09-03T22:48:33.646Z,100777.56
2022-09-03T22:51:02.689Z,100770.91
2022-09-03T22:53:50.751Z,100764.84
2022-09-03T22:56:22.103Z,100770.75
2022-09-03T22:59:36.821Z,100773.75
2022-09-03T23:02:14.224Z,100763.91
2022-09-03T23:04:59.151Z,100767.94
2022-09-03T23:07:35.001Z,100767.31
2022-09-03T23:10:09.605Z,100766.72
2022-09-03T23:13:16.583Z,100766.94
2022-09-03T23:15:45.946Z,100772.66
2022-09-03T23:18:20.960Z,100772.66
2022-09-03T23:20:58.717Z,100774.78
2022-09-03T23:23:34.341Z,100767.66
2022-09-03T23:26:21.573Z,100774.19
2022-09-03T23:28:54.432Z,100780.72
2022-09-03T23:31:24.170Z,100775.25
2022-09-03T23:33:53.752Z,100778.22
2022-09-03T23:36:57.960Z,100774.66
2022-09-03T23:39:28.636Z,100780.38
2022-09-03T23:42:27.533Z,100786.06
2022-09-03T23:45:25.095Z,100785.72
2022-09-03T23:48:01.041Z,100793.53
2022-09-03T23:50:45.049Z,100786.63
2022-09-03T23:53:17.685Z,100800.41
2022-09-03T23:55:53.802Z,100797.50
2022-09-03T23:58:55.937Z,100799.47
